Time;durP1;ratioP1;P1;durP2;ratioP2;P2;SDS_P1;SDS_P2;PMS_P1;PMS_P2;Temp;Humidity;BMP_temperature;BMP_pressure;BME280_temperature;BME280_humidity;BME280_pressure;Samples;Min_cycle;Max_cycle;Signal;HPM_P1;HPM_P2
2022/05/06 00:01:55;;;;;;;6.90;6.30;;;10.30;99.90;;;;;;5073664;28;20283;-66
2022/05/06 00:04:24;;;;;;;7.13;6.53;;;10.30;99.90;;;;;;5073341;28;20211;-66
2022/05/06 00:06:52;;;;;;;8.10;7.35;;;10.30;99.90;;;;;;5073229;28;20239;-66
2022/05/06 00:09:18;;;;;;;8.82;8.02;;;10.20;99.90;;;;;;5073358;28;20298;-65
2022/05/06 00:11:47;;;;;;;9.77;8.88;;;10.20;99.90;;;;;;5073335;28;20290;-65
2022/05/06 00:14:13;;;;;;;7.43;6.72;;;10.20;99.90;;;;;;5073278;28;20291;-65
2022/05/06 00:16:41;;;;;;;7.85;7.15;;;10.20;99.90;;;;;;5073274;28;20218;-66
2022/05/06 00:19:07;;;;;;;8.88;8.07;;;10.20;99.90;;;;;;5073407;28;20294;-66
2022/05/06 00:21:35;;;;;;;8.98;8.18;;;10.20;99.90;;;;;;5073234;28;20290;-66
2022/05/06 00:24:02;;;;;;;7.45;6.85;;;10.10;99.90;;;;;;5073348;28;20204;-66
2022/05/06 00:26:29;;;;;;;11.55;9.88;;;10.10;99.90;;;;;;5075444;28;20230;-66
2022/05/06 00:28:57;;;;;;;11.45;10.25;;;10.10;99.90;;;;;;5076925;28;20644;-66
2022/05/06 00:31:24;;;;;;;10.77;9.68;;;10.10;99.90;;;;;;5076875;28;20299;-66
2022/05/06 00:33:51;;;;;;;9.63;8.68;;;10.10;99.90;;;;;;5077130;28;20203;-66
2022/05/06 00:36:18;;;;;;;8.70;7.90;;;10.00;99.90;;;;;;5076294;28;20762;-65
2022/05/06 00:38:45;;;;;;;8.80;8.00;;;10.00;99.90;;;;;;5076549;28;20291;-65
2022/05/06 00:41:12;;;;;;;9.57;8.65;;;10.00;99.90;;;;;;5076902;28;20298;-65
2022/05/06 00:43:40;;;;;;;8.95;8.05;;;10.00;99.90;;;;;;5076770;28;20288;-65
2022/05/06 00:46:12;;;;;;;8.25;7.55;;;10.00;99.90;;;;;;5076340;28;20227;-65
2022/05/06 00:48:42;;;;;;;9.00;8.20;;;10.00;99.90;;;;;;5076741;28;20180;-65
2022/05/06 00:51:09;;;;;;;8.18;7.07;;;10.00;99.90;;;;;;5076584;28;20196;-65
2022/05/06 00:53:36;;;;;;;9.63;8.73;;;10.00;99.90;;;;;;5077336;28;20204;-65
2022/05/06 00:56:03;;;;;;;7.85;7.25;;;10.00;99.90;;;;;;5076505;28;20586;-66
2022/05/06 00:58:32;;;;;;;7.00;6.40;;;10.00;99.90;;;;;;5076508;28;20234;-66
2022/05/06 01:00:59;;;;;;;7.03;6.32;;;10.00;99.90;;;;;;5076349;28;20282;-65
2022/05/06 01:03:27;;;;;;;7.93;7.20;;;10.00;99.90;;;;;;5076094;28;20326;-65
2022/05/06 01:05:55;;;;;;;7.30;6.70;;;10.00;99.90;;;;;;5075885;28;20306;-66
2022/05/06 01:08:22;;;;;;;8.35;7.55;;;10.00;99.90;;;;;;5075987;28;20210;-65
2022/05/06 01:10:49;;;;;;;7.90;7.20;;;10.00;99.90;;;;;;5076226;28;20291;-66
2022/05/06 01:13:18;;;;;;;9.75;8.82;;;10.00;99.90;;;;;;5075817;28;20235;-65
2022/05/06 01:15:45;;;;;;;8.57;7.68;;;10.00;99.90;;;;;;5076077;28;20219;-65
2022/05/06 01:18:13;;;;;;;8.20;7.50;;;10.00;99.90;;;;;;5075786;28;20283;-65
2022/05/06 01:20:49;;;;;;;8.48;7.68;;;10.00;99.90;;;;;;5076021;28;20621;-66
2022/05/06 01:23:17;;;;;;;8.07;7.28;;;10.00;99.90;;;;;;5075727;28;20220;-65
2022/05/06 01:25:45;;;;;;;7.47;6.88;;;10.00;99.90;;;;;;5075834;28;20270;-65
2022/05/06 01:28:14;;;;;;;7.53;6.93;;;10.10;99.90;;;;;;5076273;28;20319;-65
2022/05/06 01:30:43;;;;;;;7.90;7.20;;;10.10;99.90;;;;;;5075759;28;20643;-66
2022/05/06 01:33:11;;;;;;;7.43;6.82;;;10.00;99.90;;;;;;5075525;28;20225;-64
2022/05/06 01:35:41;;;;;;;8.38;7.53;;;10.00;99.90;;;;;;5075691;28;20242;-64
2022/05/06 01:38:10;;;;;;;7.00;6.40;;;10.00;99.90;;;;;;5075272;28;20192;-66
2022/05/06 01:40:42;;;;;;;9.60;8.60;;;10.00;99.90;;;;;;5075705;28;20228;-66
2022/05/06 01:43:14;;;;;;;8.07;7.38;;;10.00;99.90;;;;;;5076210;28;20188;-66
2022/05/06 01:45:43;;;;;;;8.82;7.93;;;10.00;99.90;;;;;;5075579;28;20224;-65
2022/05/06 01:48:10;;;;;;;8.30;7.50;;;10.00;99.90;;;;;;5075565;28;20327;-65
2022/05/06 01:50:39;;;;;;;8.13;7.47;;;10.00;99.90;;;;;;5075245;28;20295;-66
2022/05/06 01:53:09;;;;;;;8.13;7.43;;;10.00;99.90;;;;;;5076151;28;20297;-66
2022/05/06 01:55:36;;;;;;;7.85;7.15;;;9.90;99.90;;;;;;5075460;28;20228;-66
2022/05/06 01:58:05;;;;;;;6.85;6.25;;;9.90;99.90;;;;;;5075130;28;20295;-66
2022/05/06 02:00:31;;;;;;;7.05;6.55;;;9.90;99.90;;;;;;5075169;28;20574;-66
2022/05/06 02:02:58;;;;;;;6.78;6.28;;;10.00;99.90;;;;;;5075916;28;20282;-66
2022/05/06 02:05:25;;;;;;;6.60;6.10;;;10.00;99.90;;;;;;5075039;28;20228;-66
2022/05/06 02:07:53;;;;;;;5.32;4.93;;;10.00;99.90;;;;;;5075174;28;20226;-66
2022/05/06 02:10:22;;;;;;;6.88;6.28;;;10.00;99.90;;;;;;5075220;28;20200;-66
2022/05/06 02:12:49;;;;;;;6.53;6.00;;;10.00;99.90;;;;;;5075226;28;20239;-66
2022/05/06 02:15:20;;;;;;;8.13;7.43;;;10.00;99.90;;;;;;5075050;28;20306;-66
2022/05/06 02:17:47;;;;;;;8.15;7.45;;;10.00;99.90;;;;;;5074792;28;20538;-66
2022/05/06 02:20:14;;;;;;;8.02;7.32;;;10.00;99.90;;;;;;5074960;28;20302;-66
2022/05/06 02:22:43;;;;;;;8.27;7.47;;;10.00;99.90;;;;;;5075000;28;20286;-66
2022/05/06 02:25:11;;;;;;;7.65;6.95;;;10.00;99.90;;;;;;5074845;28;20247;-66
2022/05/06 02:27:38;;;;;;;7.50;6.80;;;10.00;99.90;;;;;;5074808;28;20306;-66
2022/05/06 02:35:37;;;;;;;5.80;5.38;;;10.00;99.90;;;;;;5074549;28;20258;-66
2022/05/06 02:38:05;;;;;;;7.82;7.05;;;10.00;99.90;;;;;;5074657;28;20199;-66
2022/05/06 02:40:32;;;;;;;9.07;8.18;;;10.00;99.90;;;;;;5074666;28;20375;-66
2022/05/06 02:42:59;;;;;;;7.65;6.95;;;9.90;99.90;;;;;;5074568;28;20287;-66
2022/05/06 02:45:27;;;;;;;7.55;6.85;;;9.90;99.90;;;;;;5074563;28;20315;-66
2022/05/06 02:47:56;;;;;;;6.50;5.90;;;9.90;99.90;;;;;;5073727;28;20219;-66
2022/05/06 02:50:23;;;;;;;7.65;6.85;;;9.90;99.90;;;;;;5076308;28;20199;-65
2022/05/06 02:52:49;;;;;;;6.13;5.68;;;9.90;99.90;;;;;;5076814;28;20207;-65
2022/05/06 02:55:16;;;;;;;5.70;5.20;;;9.90;99.90;;;;;;5076250;28;20307;-65
2022/05/06 02:57:43;;;;;;;7.75;7.13;;;9.90;99.90;;;;;;5074398;28;20290;-65
2022/05/06 03:00:11;;;;;;;6.97;6.38;;;9.90;99.90;;;;;;5074291;28;20235;-66
2022/05/06 03:02:39;;;;;;;7.10;6.50;;;9.90;99.90;;;;;;5073915;28;20743;-66
2022/05/06 03:05:09;;;;;;;7.40;6.70;;;9.90;99.90;;;;;;5073731;28;20232;-66
2022/05/06 03:07:36;;;;;;;6.65;6.15;;;9.90;99.90;;;;;;5074090;28;20266;-66
2022/05/06 03:10:03;;;;;;;6.80;6.20;;;9.90;99.90;;;;;;5074107;28;20286;-66
2022/05/06 03:12:31;;;;;;;9.35;8.20;;;9.90;99.90;;;;;;5074000;28;20303;-65
2022/05/06 03:14:59;;;;;;;7.20;6.60;;;9.90;99.90;;;;;;5073960;28;20290;-66
2022/05/06 03:17:25;;;;;;;6.88;6.28;;;9.80;99.90;;;;;;5073921;28;20197;-66
2022/05/06 03:19:52;;;;;;;6.28;5.78;;;9.80;99.90;;;;;;5073607;28;20382;-65
2022/05/06 03:22:21;;;;;;;5.70;5.20;;;9.80;99.90;;;;;;5073884;28;20291;-65
2022/05/06 03:24:48;;;;;;;6.45;5.95;;;9.90;99.90;;;;;;5073392;28;20258;-66
2022/05/06 03:29:56;;;;;;;7.28;6.57;;;9.90;99.90;;;;;;5064490;28;20206;-66
2022/05/06 03:32:23;;;;;;;7.03;6.35;;;9.80;99.90;;;;;;5073858;28;20207;-66
2022/05/06 03:34:51;;;;;;;7.90;7.20;;;9.80;99.90;;;;;;5073742;28;20290;-65
2022/05/06 03:37:18;;;;;;;9.23;8.30;;;9.80;99.90;;;;;;5073734;28;20278;-66
2022/05/06 03:39:46;;;;;;;10.63;8.45;;;9.80;99.90;;;;;;5073719;28;20200;-65
2022/05/06 03:42:13;;;;;;;17.52;12.70;;;9.70;99.90;;;;;;5073883;28;20639;-65
2022/05/06 03:44:41;;;;;;;12.85;11.15;;;9.70;99.90;;;;;;5073798;28;20235;-65
2022/05/06 03:47:08;;;;;;;13.13;11.73;;;9.60;99.90;;;;;;5074176;28;20216;-65
2022/05/06 03:49:35;;;;;;;10.90;9.80;;;9.60;99.90;;;;;;5073846;28;20290;-64
2022/05/06 03:52:01;;;;;;;9.02;8.13;;;9.60;99.90;;;;;;5073219;28;20294;-64
2022/05/06 03:54:28;;;;;;;8.75;7.82;;;9.60;99.90;;;;;;5074196;28;20239;-66
2022/05/06 03:56:56;;;;;;;9.18;8.27;;;9.60;99.90;;;;;;5073867;28;20308;-66
2022/05/06 03:59:23;;;;;;;9.18;8.27;;;9.60;99.90;;;;;;5073476;28;20375;-67
2022/05/06 04:01:50;;;;;;;9.77;8.77;;;9.60;99.90;;;;;;5073189;28;20196;-67
2022/05/06 04:04:17;;;;;;;8.15;7.35;;;9.60;99.90;;;;;;5073079;28;20298;-67
2022/05/06 04:06:44;;;;;;;7.68;6.97;;;9.60;99.90;;;;;;5073365;28;20231;-67
2022/05/06 04:09:12;;;;;;;7.85;7.15;;;9.60;99.90;;;;;;5073478;28;20287;-66
2022/05/06 04:11:39;;;;;;;8.65;7.75;;;9.60;99.90;;;;;;5073467;28;20254;-66
2022/05/06 04:14:09;;;;;;;14.45;11.93;;;9.70;99.90;;;;;;5073415;28;20286;-65
2022/05/06 04:16:36;;;;;;;12.95;10.93;;;9.60;99.90;;;;;;5073252;28;20293;-67
2022/05/06 04:19:03;;;;;;;11.45;10.20;;;9.60;99.90;;;;;;5072848;28;20242;-67
2022/05/06 04:24:15;;;;;;;14.00;11.63;;;9.60;99.90;;;;;;5073442;28;20302;-66
2022/05/06 04:26:41;;;;;;;13.18;11.77;;;9.60;99.90;;;;;;5073197;28;20582;-66
2022/05/06 04:29:10;;;;;;;13.15;11.85;;;9.60;99.90;;;;;;5073133;28;20666;-66
2022/05/06 04:31:37;;;;;;;12.35;11.15;;;9.50;99.90;;;;;;5073079;28;20295;-66
2022/05/06 04:34:03;;;;;;;11.80;10.55;;;9.50;99.90;;;;;;5072901;28;20200;-66
2022/05/06 04:36:31;;;;;;;12.07;10.27;;;9.50;99.90;;;;;;5072765;28;20663;-66
2022/05/06 04:38:57;;;;;;;12.52;11.23;;;9.50;99.90;;;;;;5073180;28;20196;-66
2022/05/06 04:41:24;;;;;;;13.02;11.68;;;9.50;99.90;;;;;;5073378;28;20290;-66
2022/05/06 04:43:51;;;;;;;11.77;10.57;;;9.50;99.90;;;;;;5073104;28;20209;-66
2022/05/06 04:46:19;;;;;;;14.18;10.68;;;9.50;99.90;;;;;;5072918;28;20715;-66
2022/05/06 04:48:46;;;;;;;10.15;9.15;;;9.50;99.90;;;;;;5073351;28;20303;-66
2022/05/06 04:51:13;;;;;;;9.02;8.18;;;9.50;99.90;;;;;;5072850;28;20227;-67
2022/05/06 04:53:40;;;;;;;9.15;8.25;;;9.50;99.90;;;;;;5072739;28;20619;-67
2022/05/06 04:56:07;;;;;;;8.60;7.80;;;9.60;99.90;;;;;;5072612;28;20319;-68
2022/05/06 04:58:34;;;;;;;8.23;7.43;;;9.60;99.90;;;;;;5072490;28;20200;-67
2022/05/06 05:01:01;;;;;;;8.15;7.35;;;9.70;99.90;;;;;;5072486;28;20645;-66
2022/05/06 05:03:29;;;;;;;7.85;7.18;;;9.70;99.90;;;;;;5072485;28;20223;-66
2022/05/06 05:05:56;;;;;;;6.45;5.95;;;9.70;99.90;;;;;;5072572;28;20230;-66
2022/05/06 05:08:23;;;;;;;7.50;6.72;;;9.70;99.90;;;;;;5072696;28;20263;-66
2022/05/06 05:10:50;;;;;;;8.65;7.82;;;9.70;99.90;;;;;;5073718;28;20235;-65
2022/05/06 05:13:17;;;;;;;11.90;10.70;;;9.70;99.90;;;;;;5075780;28;20257;-67
2022/05/06 05:15:44;;;;;;;10.30;9.30;;;9.70;99.90;;;;;;5076034;28;20312;-65
2022/05/06 05:18:10;;;;;;;12.23;9.93;;;9.70;99.90;;;;;;5076215;28;20283;-65
2022/05/06 05:20:40;;;;;;;8.80;7.90;;;9.70;99.90;;;;;;5076239;28;20238;-66
2022/05/06 05:23:07;;;;;;;12.23;10.70;;;9.70;99.90;;;;;;5076175;28;20283;-65
2022/05/06 05:25:34;;;;;;;10.68;9.57;;;9.70;99.90;;;;;;5076113;28;20311;-66
2022/05/06 05:28:00;;;;;;;10.68;9.57;;;9.70;99.90;;;;;;5076000;28;20302;-66
2022/05/06 05:30:27;;;;;;;10.02;8.48;;;9.70;99.90;;;;;;5076127;28;20290;-66
2022/05/06 05:32:54;;;;;;;9.27;8.30;;;9.70;99.90;;;;;;5076127;28;20342;-65
2022/05/06 05:35:21;;;;;;;8.30;7.50;;;9.80;99.90;;;;;;5075965;28;20631;-66
2022/05/06 05:37:50;;;;;;;7.85;7.15;;;9.80;99.90;;;;;;5075980;28;20271;-66
2022/05/06 05:40:17;;;;;;;6.80;6.20;;;9.90;99.90;;;;;;5076443;28;20294;-65
2022/05/06 05:42:44;;;;;;;6.63;6.13;;;9.90;99.90;;;;;;5077864;28;20287;-65
2022/05/06 05:50:48;;;;;;;16.85;13.18;;;10.00;99.90;;;;;;5050951;28;20188;-66
2022/05/06 05:53:17;;;;;;;15.93;12.95;;;10.00;99.90;;;;;;5077479;28;20204;-66
2022/05/06 05:55:44;;;;;;;15.75;12.77;;;10.00;99.90;;;;;;5080132;28;20258;-66
2022/05/06 05:58:11;;;;;;;14.18;12.68;;;10.00;99.90;;;;;;5080933;28;20196;-66
2022/05/06 06:00:39;;;;;;;14.85;11.55;;;10.00;99.90;;;;;;5081760;28;20258;-66
2022/05/06 06:03:06;;;;;;;15.15;12.85;;;10.00;99.90;;;;;;5081140;28;20196;-66
2022/05/06 06:05:33;;;;;;;11.68;10.48;;;10.10;99.90;;;;;;5082163;28;20223;-66
2022/05/06 06:08:00;;;;;;;11.13;10.02;;;10.10;99.90;;;;;;5082572;28;20243;-67
2022/05/06 06:10:28;;;;;;;10.73;9.63;;;10.10;99.90;;;;;;5075097;28;20272;-67
2022/05/06 06:12:56;;;;;;;15.60;12.70;;;10.20;99.90;;;;;;5074885;28;20208;-67
2022/05/06 06:15:23;;;;;;;21.25;17.83;;;10.20;99.90;;;;;;5075034;28;20216;-67
2022/05/06 06:17:50;;;;;;;21.42;16.40;;;10.20;99.90;;;;;;5075136;28;20283;-67
2022/05/06 06:20:17;;;;;;;24.27;17.23;;;10.20;99.90;;;;;;5075027;28;20282;-67
2022/05/06 06:22:43;;;;;;;23.77;18.35;;;10.20;99.90;;;;;;5074647;28;20262;-67
2022/05/06 06:25:10;;;;;;;22.20;17.92;;;10.20;99.90;;;;;;5074559;28;20722;-67
2022/05/06 06:27:39;;;;;;;21.85;17.45;;;10.20;99.90;;;;;;5074430;28;20398;-67
2022/05/06 06:30:06;;;;;;;21.98;16.85;;;10.30;99.90;;;;;;5074797;28;20200;-67
2022/05/06 06:32:33;;;;;;;24.92;19.02;;;10.30;99.90;;;;;;5074836;28;20235;-67
2022/05/06 06:35:01;;;;;;;30.58;21.85;;;10.30;99.90;;;;;;5074744;28;20356;-67
2022/05/06 06:37:27;;;;;;;24.23;19.15;;;10.30;99.90;;;;;;5074370;28;20211;-67
2022/05/06 06:39:54;;;;;;;23.80;18.70;;;10.30;99.90;;;;;;5074579;28;20196;-67
2022/05/06 06:42:22;;;;;;;20.38;16.95;;;10.40;99.90;;;;;;5074583;28;20200;-67
2022/05/06 06:44:50;;;;;;;22.13;16.20;;;10.40;99.90;;;;;;5074458;28;20195;-67
2022/05/06 06:47:17;;;;;;;19.63;15.63;;;10.40;99.90;;;;;;5074189;28;20675;-67
2022/05/06 06:49:45;;;;;;;19.08;14.68;;;10.40;99.90;;;;;;5074436;28;20238;-67
2022/05/06 06:52:13;;;;;;;19.65;16.38;;;10.50;99.90;;;;;;5074366;28;20203;-67
2022/05/06 06:54:40;;;;;;;22.83;17.70;;;10.60;99.90;;;;;;5074006;28;20570;-67
2022/05/06 06:57:07;;;;;;;19.20;15.75;;;10.60;99.90;;;;;;5074320;28;20637;-67
2022/05/06 06:59:34;;;;;;;23.40;19.15;;;10.60;99.90;;;;;;5074264;28;20287;-67
2022/05/06 07:02:03;;;;;;;22.13;17.58;;;10.60;99.90;;;;;;5074134;28;20290;-66
2022/05/06 07:04:29;;;;;;;22.02;16.55;;;10.60;99.90;;;;;;5073811;28;20310;-66
2022/05/06 07:12:24;;;;;;;18.77;14.27;;;10.70;99.90;;;;;;5073984;28;20325;-68
2022/05/06 07:14:51;;;;;;;14.30;12.77;;;10.80;99.90;;;;;;5073611;28;20290;-68
2022/05/06 07:17:19;;;;;;;22.85;16.88;;;10.90;99.90;;;;;;5074071;28;20290;-68
2022/05/06 07:19:46;;;;;;;17.33;14.95;;;11.00;99.90;;;;;;5073945;28;20287;-67
2022/05/06 07:22:13;;;;;;;19.25;14.90;;;11.00;99.90;;;;;;5073945;28;20298;-67
2022/05/06 07:24:40;;;;;;;16.45;13.45;;;11.10;99.90;;;;;;5073797;28;20231;-68
2022/05/06 07:27:07;;;;;;;15.68;13.40;;;11.20;99.90;;;;;;5074472;28;20294;-67
2022/05/06 07:29:34;;;;;;;18.35;13.93;;;11.20;99.90;;;;;;5073996;28;20306;-67
2022/05/06 07:32:01;;;;;;;17.02;14.20;;;11.30;99.90;;;;;;5073992;28;20239;-67
2022/05/06 07:34:30;;;;;;;15.40;12.82;;;11.30;99.90;;;;;;5073269;28;20227;-67
2022/05/06 07:36:57;;;;;;;15.30;13.18;;;11.40;99.90;;;;;;5073158;28;20660;-67
2022/05/06 07:39:24;;;;;;;12.50;11.20;;;11.40;99.90;;;;;;5073710;28;20204;-67
2022/05/06 07:41:51;;;;;;;13.32;11.93;;;11.40;99.90;;;;;;5073412;28;20679;-67
2022/05/06 07:44:18;;;;;;;11.52;10.32;;;11.40;99.90;;;;;;5073327;28;20698;-68
2022/05/06 07:46:45;;;;;;;16.85;12.88;;;11.50;99.90;;;;;;5073713;28;20311;-67
2022/05/06 07:49:12;;;;;;;14.63;13.13;;;11.40;99.90;;;;;;5073490;28;20216;-67
2022/05/06 07:51:40;;;;;;;16.25;13.90;;;11.40;99.90;;;;;;5074111;28;20291;-67
2022/05/06 07:54:08;;;;;;;15.68;13.95;;;11.40;99.90;;;;;;5073436;28;20290;-67
2022/05/06 07:56:35;;;;;;;14.98;12.18;;;11.40;99.90;;;;;;5073275;28;20269;-67
2022/05/06 07:59:02;;;;;;;18.38;14.95;;;11.40;99.90;;;;;;5073264;28;20195;-67
2022/05/06 08:06:58;;;;;;;15.70;13.40;;;11.10;99.90;;;;;;5073145;28;20218;-67
2022/05/06 08:09:25;;;;;;;20.83;15.13;;;11.10;99.90;;;;;;5073148;28;20234;-67
2022/05/06 08:11:52;;;;;;;18.83;16.00;;;11.10;99.90;;;;;;5073161;28;20675;-67
2022/05/06 08:14:20;;;;;;;16.92;14.32;;;11.10;99.90;;;;;;5072831;28;20639;-67
2022/05/06 08:16:47;;;;;;;19.42;15.43;;;11.10;99.90;;;;;;5072963;28;20307;-67
2022/05/06 08:19:14;;;;;;;23.63;17.75;;;11.10;99.90;;;;;;5073248;28;20200;-67
2022/05/06 08:21:41;;;;;;;24.83;18.98;;;11.10;99.90;;;;;;5073254;28;20203;-67
2022/05/06 08:24:10;;;;;;;19.20;17.20;;;11.00;99.90;;;;;;5073116;28;20196;-67
2022/05/06 08:26:37;;;;;;;24.02;18.38;;;11.00;99.90;;;;;;5073021;28;20224;-67
2022/05/06 08:29:04;;;;;;;27.55;19.45;;;11.00;99.90;;;;;;5072750;28;20310;-67
2022/05/06 08:31:37;;;;;;;22.30;17.75;;;11.00;99.90;;;;;;5073022;28;20215;-67
2022/05/06 08:34:06;;;;;;;18.42;15.52;;;11.00;99.90;;;;;;5073047;28;20287;-66
2022/05/06 08:36:33;;;;;;;23.50;18.42;;;11.10;99.90;;;;;;5072864;28;20310;-66
2022/05/06 08:39:00;;;;;;;28.08;18.38;;;11.10;99.90;;;;;;5073016;28;20282;-66
2022/05/06 08:41:29;;;;;;;20.00;17.13;;;11.10;99.90;;;;;;5072964;28;20227;-66
2022/05/06 08:43:57;;;;;;;18.08;15.60;;;11.10;99.90;;;;;;5072890;28;20734;-66
2022/05/06 08:51:58;;;;;;;19.98;15.75;;;11.30;99.90;;;;;;5076477;28;20233;-67
2022/05/06 08:54:24;;;;;;;17.70;15.00;;;11.30;99.90;;;;;;5076743;28;20286;-67
2022/05/06 08:56:55;;;;;;;13.57;12.18;;;11.40;99.90;;;;;;5076591;28;20315;-67
2022/05/06 08:59:22;;;;;;;14.25;12.75;;;11.50;99.90;;;;;;5076333;28;20187;-67
2022/05/06 09:01:49;;;;;;;13.02;11.68;;;11.60;99.90;;;;;;5076610;28;20304;-66
2022/05/06 09:04:16;;;;;;;12.32;11.13;;;11.70;99.90;;;;;;5076271;28;20236;-67
2022/05/06 09:06:43;;;;;;;11.55;10.35;;;11.80;99.90;;;;;;5076568;28;20216;-69
2022/05/06 09:09:18;;;;;;;11.85;10.57;;;11.90;99.90;;;;;;5076403;28;20318;-69
2022/05/06 09:17:45;;;;;;;12.40;10.38;;;12.00;99.90;;;;;;5076362;28;20195;-71
2022/05/06 09:20:19;;;;;;;18.08;15.63;;;12.20;99.90;;;;;;5076047;28;20287;-70
2022/05/06 09:22:47;;;;;;;20.13;15.18;;;12.10;99.90;;;;;;5076289;28;20220;-69
2022/05/06 09:25:34;;;;;;;18.20;14.55;;;12.00;99.90;;;;;;5076145;28;20222;-69
2022/05/06 09:28:01;;;;;;;17.67;15.20;;;12.00;99.90;;;;;;5076202;28;20279;-69
2022/05/06 09:30:30;;;;;;;20.70;15.95;;;12.10;99.90;;;;;;5076048;28;20310;-69
2022/05/06 09:32:57;;;;;;;16.95;13.40;;;12.00;99.90;;;;;;5076356;28;20267;-69
2022/05/06 09:35:28;;;;;;;23.55;16.80;;;12.20;99.90;;;;;;5075707;28;20307;-69
2022/05/06 09:37:55;;;;;;;17.30;15.48;;;12.30;99.90;;;;;;5075935;28;20650;-67
2022/05/06 09:40:28;;;;;;;21.88;16.42;;;12.40;99.90;;;;;;5075999;28;20280;-67
2022/05/06 09:42:59;;;;;;;17.75;15.45;;;12.40;99.90;;;;;;5076315;28;20188;-67
2022/05/06 09:45:33;;;;;;;17.88;15.63;;;12.40;99.90;;;;;;5075960;28;20666;-67
2022/05/06 09:48:01;;;;;;;14.65;13.02;;;12.40;99.90;;;;;;5075666;28;20551;-67
2022/05/06 09:50:36;;;;;;;17.45;15.48;;;12.50;99.90;;;;;;5075677;28;20650;-67
2022/05/06 09:53:04;;;;;;;19.83;15.23;;;12.40;99.90;;;;;;5075451;28;20732;-67
2022/05/06 09:55:31;;;;;;;20.52;15.13;;;12.40;99.90;;;;;;5075823;28;20219;-67
2022/05/06 09:57:59;;;;;;;15.60;13.85;;;12.40;99.90;;;;;;5075190;28;20286;-67
2022/05/06 10:00:27;;;;;;;17.05;15.25;;;12.40;99.90;;;;;;5075454;28;20598;-66
2022/05/06 10:02:56;;;;;;;19.75;14.63;;;12.60;99.90;;;;;;5075239;28;20288;-66
2022/05/06 10:05:24;;;;;;;16.60;14.55;;;12.50;99.90;;;;;;5075204;28;20228;-66
2022/05/06 10:07:58;;;;;;;15.77;12.88;;;12.50;99.90;;;;;;5075139;28;20200;-67
2022/05/06 10:10:28;;;;;;;21.30;16.00;;;12.60;99.90;;;;;;5075082;28;20291;-67
2022/05/06 10:12:58;;;;;;;15.52;13.82;;;12.70;99.90;;;;;;5075040;28;20207;-67
2022/05/06 10:15:28;;;;;;;16.77;14.95;;;12.60;99.90;;;;;;5075531;28;20440;-67
2022/05/06 10:17:57;;;;;;;15.60;14.00;;;12.70;99.90;;;;;;5074785;28;20593;-68
2022/05/06 10:21:00;;;;;;;13.57;12.27;;;12.60;99.90;;;;;;5074879;28;20649;-68
2022/05/06 10:23:48;;;;;;;13.38;12.07;;;12.70;99.90;;;;;;5074788;28;20184;-67
2022/05/06 10:26:41;;;;;;;13.10;11.38;;;12.80;99.90;;;;;;5074653;28;20219;-68
2022/05/06 10:35:15;;;;;;;13.65;12.35;;;13.00;99.90;;;;;;5074835;28;20199;-66
2022/05/06 10:37:45;;;;;;;13.07;11.77;;;13.00;99.90;;;;;;5074943;28;20283;-64
2022/05/06 10:40:33;;;;;;;18.17;14.73;;;13.10;99.90;;;;;;5074391;28;20735;-65
2022/05/06 10:43:00;;;;;;;15.07;13.55;;;13.10;99.90;;;;;;5075439;28;20275;-65
2022/05/06 10:45:34;;;;;;;13.85;12.32;;;13.00;99.90;;;;;;5075064;28;20755;-65
2022/05/06 10:48:01;;;;;;;13.50;12.18;;;13.00;99.90;;;;;;5075069;28;20236;-64
2022/05/06 10:50:38;;;;;;;13.98;12.35;;;13.00;99.90;;;;;;5074512;28;20326;-68
2022/05/06 10:53:05;;;;;;;12.52;11.23;;;12.80;99.90;;;;;;5074791;28;20279;-65
2022/05/06 10:55:32;;;;;;;17.40;14.27;;;13.00;99.90;;;;;;5074241;28;20749;-66
2022/05/06 10:58:02;;;;;;;13.55;11.18;;;13.00;99.90;;;;;;5074544;28;20227;-66
2022/05/06 11:00:30;;;;;;;11.70;10.45;;;13.00;99.90;;;;;;5074385;28;20283;-66
2022/05/06 11:03:01;;;;;;;12.82;11.57;;;13.10;99.90;;;;;;5073970;28;20235;-66
2022/05/06 11:05:31;;;;;;;12.50;11.23;;;13.20;99.90;;;;;;5073930;28;20227;-66
2022/05/06 11:08:00;;;;;;;17.73;12.43;;;13.20;99.90;;;;;;5074476;28;20239;-68
2022/05/06 11:10:30;;;;;;;11.60;10.43;;;13.20;99.90;;;;;;5073444;28;20252;-66
2022/05/06 11:12:58;;;;;;;12.23;10.82;;;13.30;99.90;;;;;;5074252;28;20200;-66
2022/05/06 11:15:29;;;;;;;11.45;10.30;;;13.40;99.90;;;;;;5073680;28;20310;-66
2022/05/06 11:17:58;;;;;;;11.23;10.10;;;13.40;99.90;;;;;;5074080;28;20204;-66
2022/05/06 11:20:27;;;;;;;12.88;11.43;;;13.60;99.90;;;;;;5073782;28;20689;-66
2022/05/06 11:23:01;;;;;;;13.48;11.45;;;13.60;99.90;;;;;;5073949;28;20204;-66
2022/05/06 11:25:33;;;;;;;11.90;10.57;;;13.60;99.90;;;;;;5073468;28;20224;-65
2022/05/06 11:28:01;;;;;;;11.38;10.30;;;13.70;99.90;;;;;;5073532;28;20750;-66
2022/05/06 11:30:30;;;;;;;10.52;9.55;;;13.80;99.90;;;;;;5073499;28;20677;-66
2022/05/06 11:32:59;;;;;;;14.77;10.70;;;14.00;99.90;;;;;;5073527;28;20685;-66
2022/05/06 11:35:32;;;;;;;9.95;9.10;;;14.10;99.90;;;;;;5073748;28;20314;-66
2022/05/06 11:38:02;;;;;;;14.15;10.23;;;14.30;99.90;;;;;;5073483;28;20181;-66
2022/05/06 11:40:34;;;;;;;10.93;9.73;;;14.50;99.90;;;;;;5081078;28;20331;-66
2022/05/06 11:43:16;;;;;;;15.98;10.65;;;14.60;99.90;;;;;;5083922;28;20219;-66
2022/05/06 11:48:32;;;;;;;9.77;8.40;;;14.90;99.90;;;;;;5081895;28;20230;-66
2022/05/06 11:51:03;;;;;;;9.80;8.90;;;15.20;99.90;;;;;;5078684;28;20303;-66
2022/05/06 11:53:32;;;;;;;13.50;8.20;;;15.30;99.90;;;;;;5078472;28;20188;-66
2022/05/06 11:55:59;;;;;;;8.57;7.63;;;15.50;99.90;;;;;;5078062;28;20634;-66
2022/05/06 11:58:27;;;;;;;10.25;8.43;;;15.60;99.90;;;;;;5077653;28;20663;-66
2022/05/06 12:00:55;;;;;;;9.60;8.07;;;15.40;99.90;;;;;;5078507;28;20195;-66
2022/05/06 12:03:24;;;;;;;9.32;8.48;;;15.30;99.90;;;;;;5077036;28;20203;-66
2022/05/06 12:06:06;;;;;;;8.88;8.00;;;15.40;99.90;;;;;;5077555;28;20223;-66
2022/05/06 12:08:37;;;;;;;8.40;7.57;;;15.20;99.90;;;;;;5078477;28;20222;-66
2022/05/06 12:11:06;;;;;;;7.40;6.70;;;15.20;99.90;;;;;;5077577;28;20249;-66
2022/05/06 12:13:36;;;;;;;9.00;7.90;;;15.20;99.90;;;;;;5077465;28;20200;-66
2022/05/06 12:16:11;;;;;;;7.35;6.63;;;15.20;99.90;;;;;;5077904;28;20254;-66
2022/05/06 12:18:51;;;;;;;9.32;8.25;;;15.40;99.90;;;;;;5077764;28;20188;-66
2022/05/06 12:21:20;;;;;;;9.27;8.38;;;15.40;99.90;;;;;;5079993;28;20195;-66
2022/05/06 12:23:54;;;;;;;8.77;7.85;;;15.20;99.90;;;;;;5082075;28;20762;-66
2022/05/06 12:26:36;;;;;;;7.30;6.70;;;15.20;99.90;;;;;;5081824;28;20254;-66
2022/05/06 12:29:18;;;;;;;8.95;8.07;;;15.20;99.90;;;;;;5082103;28;20184;-66
2022/05/06 12:31:46;;;;;;;9.13;7.93;;;15.30;99.90;;;;;;5081977;28;20627;-66
2022/05/06 12:34:13;;;;;;;9.70;8.38;;;15.30;99.90;;;;;;5081098;28;20730;-65
2022/05/06 12:36:41;;;;;;;8.35;7.03;;;15.20;99.90;;;;;;5081237;28;20279;-66
2022/05/06 12:39:21;;;;;;;11.48;7.90;;;15.20;99.90;;;;;;5082129;28;20203;-66
2022/05/06 12:41:49;;;;;;;7.93;7.25;;;15.20;99.90;;;;;;5082393;28;20267;-66
2022/05/06 12:44:18;;;;;;;7.03;6.43;;;15.20;99.90;;;;;;5081188;28;20200;-66
2022/05/06 12:46:47;;;;;;;6.75;6.25;;;15.30;99.90;;;;;;5080377;28;20223;-67
2022/05/06 12:52:00;;;;;;;6.88;6.25;;;15.40;99.90;;;;;;5081658;28;20184;-66
2022/05/06 12:54:28;;;;;;;8.93;7.93;;;15.40;99.90;;;;;;5080715;28;20239;-66
2022/05/06 12:56:56;;;;;;;9.30;8.20;;;15.30;99.90;;;;;;5080929;28;20220;-66
2022/05/06 12:59:23;;;;;;;6.95;6.35;;;15.20;99.90;;;;;;5080649;28;20200;-66
2022/05/06 13:01:52;;;;;;;6.22;5.63;;;;;;;;;;5081006;28;20636;-67
2022/05/06 13:04:19;;;;;;;6.32;5.78;;;15.30;99.90;;;;;;5080086;28;20790;-67
2022/05/06 13:06:47;;;;;;;8.23;7.43;;;15.60;99.90;;;;;;5078082;28;20230;-69
2022/05/06 13:09:14;;;;;;;8.15;7.40;;;15.80;99.90;;;;;;5076358;28;20303;-69
2022/05/06 13:11:42;;;;;;;9.60;8.20;;;15.90;99.90;;;;;;5076168;28;20628;-69
2022/05/06 13:14:09;;;;;;;12.02;9.82;;;16.00;99.90;;;;;;5076443;28;20283;-68
2022/05/06 13:16:36;;;;;;;8.45;7.65;;;16.00;99.90;;;;;;5084378;28;20235;-68
2022/05/06 13:19:04;;;;;;;8.05;7.03;;;16.10;99.90;;;;;;5082838;28;20615;-68
2022/05/06 13:21:31;;;;;;;6.90;6.30;;;16.20;99.90;;;;;;5076027;28;20647;-68
2022/05/06 13:23:58;;;;;;;7.03;6.38;;;16.30;99.90;;;;;;5076091;28;20211;-68
2022/05/06 13:26:25;;;;;;;7.37;6.73;;;16.30;99.90;;;;;;5075811;28;20504;-67
2022/05/06 13:28:53;;;;;;;8.85;7.93;;;16.50;99.90;;;;;;5075716;28;20671;-68
2022/05/06 13:31:20;;;;;;;10.25;9.25;;;16.60;99.90;;;;;;5076003;28;20211;-68
2022/05/06 13:33:48;;;;;;;11.35;7.57;;;16.60;99.90;;;;;;5074902;28;20619;-67
2022/05/06 13:36:15;;;;;;;7.50;6.90;;;16.60;99.90;;;;;;5075669;28;20227;-68
2022/05/06 13:38:42;;;;;;;6.55;6.05;;;16.60;99.90;;;;;;5075728;28;20286;-67